Time;durP1;ratioP1;P1;durP2;ratioP2;P2;SDS_P1;SDS_P2;PMS_P1;PMS_P2;Temp;Humidity;BMP_temperature;BMP_pressure;BME280_temperature;BME280_humidity;BME280_pressure;Samples;Min_cycle;Max_cycle;Signal;HPM_P1;HPM_P2
2022/10/21 00:07:14;;;;;;;7.60;4.95;;;;;;;21.95;50.62;101171.09;21063814;28;20059;-79
2022/10/21 00:17:15;;;;;;;7.25;5.05;;;;;;;21.98;50.55;101176.16;21076561;27;20063;-80
2022/10/21 00:27:15;;;;;;;7.10;5.07;;;;;;;21.95;50.28;101171.09;21072624;27;20043;-78
2022/10/21 00:37:16;;;;;;;7.15;4.68;;;;;;;21.94;50.55;101150.97;21080270;27;20055;-80
2022/10/21 00:47:20;;;;;;;6.43;4.43;;;;;;;21.92;50.30;101143.16;21063567;27;20031;-79
2022/10/21 00:57:24;;;;;;;8.95;4.78;;;;;;;21.88;50.05;101131.97;21063906;27;20865;-80
2022/10/21 01:07:24;;;;;;;6.03;4.28;;;;;;;21.89;50.81;101131.03;21071393;27;20052;-79
2022/10/21 01:17:58;;;;;;;6.10;4.40;;;;;;;21.85;50.53;101120.78;21075749;27;20054;-78
2022/10/21 01:27:58;;;;;;;6.72;4.90;;;;;;;21.83;50.87;101130.63;21066966;27;20575;-78
2022/10/21 01:38:13;;;;;;;6.30;4.47;;;;;;;21.83;50.78;101122.72;21070533;27;20047;-77
2022/10/21 01:48:27;;;;;;;7.43;4.68;;;;;;;21.83;51.12;101101.63;21079982;27;20158;-78
2022/10/21 01:58:31;;;;;;;6.32;4.85;;;;;;;21.80;51.08;101084.22;21062175;27;20052;-78
2022/10/21 02:08:32;;;;;;;6.53;4.32;;;;;;;21.80;50.95;101084.22;21063117;27;20090;-79
2022/10/21 02:18:33;;;;;;;6.43;4.30;;;;;;;21.78;51.00;101078.19;21065687;27;20052;-80
2022/10/21 02:28:33;;;;;;;7.90;4.57;;;;;;;21.77;50.76;101109.94;21065975;27;20112;-79
2022/10/21 02:38:42;;;;;;;6.95;4.40;;;;;;;21.75;51.30;101092.44;21060998;27;20051;-78
2022/10/21 02:48:46;;;;;;;5.88;4.30;;;;;;;21.70;50.94;101102.47;21066513;27;20135;-79
2022/10/21 02:58:46;;;;;;;8.25;4.40;;;;;;;21.71;51.08;101103.28;21059398;27;20876;-78
2022/10/21 03:08:47;;;;;;;5.43;4.15;;;;;;;21.65;50.78;101101.91;21049424;27;20054;-79
2022/10/21 03:18:47;;;;;;;5.82;4.10;;;;;;;21.67;51.00;101099.19;21059709;28;20044;-78
2022/10/21 03:28:47;;;;;;;6.50;4.22;;;;;;;21.66;51.19;101100.13;21066464;28;20043;-78
2022/10/21 03:38:49;;;;;;;5.95;4.00;;;;;;;21.65;51.11;101090.53;21069007;27;20147;-78
2022/10/21 03:48:49;;;;;;;5.78;4.03;;;;;;;21.64;51.07;101079.16;21057149;27;20047;-78
2022/10/21 03:58:49;;;;;;;6.40;4.53;;;;;;;21.65;51.20;101072.91;21076807;27;20119;-79
2022/10/21 04:08:50;;;;;;;7.13;4.50;;;;;;;21.64;51.33;101062.50;21067971;27;20428;-79
2022/10/21 04:18:50;;;;;;;7.78;3.78;;;;;;;21.66;51.46;101050.88;21067662;27;21820;-78
2022/10/21 04:28:51;;;;;;;8.48;4.43;;;;;;;21.69;52.45;101050.69;21075576;27;20032;-76
2022/10/21 04:38:52;;;;;;;15.50;5.95;;;;;;;21.72;53.28;101033.81;21066966;27;20044;-80
2022/10/21 04:48:52;;;;;;;19.27;5.97;;;;;;;21.72;52.38;101025.91;21088437;27;20092;-79
2022/10/21 04:58:53;;;;;;;20.77;6.95;;;;;;;21.71;53.50;101005.75;21073309;27;20032;-76
2022/10/21 05:08:53;;;;;;;17.52;6.75;;;;;;;21.69;51.63;101011.16;21062445;27;20047;-77
2022/10/21 05:18:54;;;;;;;17.92;8.00;;;;;;;21.49;48.44;101025.66;21075557;27;20044;-77
2022/10/21 05:28:54;;;;;;;17.45;7.38;;;;;;;21.53;49.32;101021.88;21066670;27;20035;-77
2022/10/21 05:38:54;;;;;;;14.45;7.32;;;;;;;21.54;50.38;101004.25;21058872;27;20052;-79
2022/10/21 05:48:55;;;;;;;13.77;7.60;;;;;;;21.43;48.61;101048.03;21051351;27;20128;-80
2022/10/21 05:58:55;;;;;;;14.45;6.90;;;;;;;21.47;49.58;101017.03;21085933;27;20942;-80
2022/10/21 06:08:57;;;;;;;11.40;6.55;;;;;;;21.48;49.94;101052.94;21072317;27;20039;-80
2022/10/21 06:18:57;;;;;;;11.88;6.68;;;;;;;21.47;50.50;101077.63;21073196;27;20043;-80
2022/10/21 06:28:58;;;;;;;12.20;6.75;;;;;;;21.45;50.40;101071.63;21071645;27;20047;-80
2022/10/21 06:38:58;;;;;;;9.68;5.90;;;;;;;21.47;50.19;101071.50;21080570;27;20044;-79
2022/10/21 06:48:59;;;;;;;10.75;5.95;;;;;;;21.47;50.15;101076.78;21080127;27;20043;-80
2022/10/21 06:59:00;;;;;;;10.45;6.03;;;;;;;21.45;50.49;101063.72;21080177;27;20082;-81
2022/10/21 07:09:02;;;;;;;7.72;5.35;;;;;;;21.44;50.48;101047.03;21091373;27;20036;-81
2022/10/21 07:19:03;;;;;;;11.95;5.57;;;;;;;21.47;50.53;101056.56;21105030;27;20123;-81
2022/10/21 07:29:05;;;;;;;9.68;5.35;;;;;;;21.48;50.89;101062.66;21085391;27;20067;-81
2022/10/21 07:39:11;;;;;;;8.15;4.93;;;;;;;21.48;50.47;101071.41;21076793;27;20035;-80
2022/10/21 07:49:12;;;;;;;8.93;4.95;;;;;;;21.48;50.99;101058.22;21086020;27;20070;-81
2022/10/21 07:59:14;;;;;;;7.03;4.95;;;;;;;21.47;50.82;101053.94;21083499;27;20054;-80
2022/10/21 08:09:15;;;;;;;8.23;4.88;;;;;;;21.50;51.05;101037.06;21090320;28;20416;-81
2022/10/21 08:19:22;;;;;;;6.80;4.93;;;;;;;21.52;50.85;101017.56;21077795;27;20020;-80
2022/10/21 08:29:23;;;;;;;6.13;4.43;;;;;;;21.53;50.69;101003.44;21066825;27;20225;-80
2022/10/21 08:39:24;;;;;;;6.32;4.53;;;;;;;21.55;50.99;100990.16;21088661;27;20048;-80
2022/10/21 08:49:33;;;;;;;6.35;4.30;;;;;;;21.56;50.79;100976.88;21076404;27;20036;-78
2022/10/21 08:59:33;;;;;;;8.20;4.28;;;;;;;21.62;50.73;100969.50;21072965;27;20059;-77
2022/10/21 09:09:44;;;;;;;9.55;5.05;;;;;;;21.64;50.78;100950.03;21084382;27;20040;-77
2022/10/21 09:19:53;;;;;;;8.50;3.88;;;;;;;21.70;50.98;100954.00;21076047;27;20043;-77
2022/10/21 09:30:04;;;;;;;5.60;4.30;;;;;;;21.74;51.00;100945.75;21072554;27;20044;-77
2022/10/21 09:40:22;;;;;;;6.40;3.88;;;;;;;21.79;50.49;100931.41;21083091;27;20506;-77
2022/10/21 09:50:24;;;;;;;4.93;3.90;;;;;;;21.81;50.56;100905.78;21088288;27;20562;-77
2022/10/21 10:00:44;;;;;;;5.05;3.65;;;;;;;21.83;50.33;100898.63;21101609;27;20088;-77
2022/10/21 10:10:44;;;;;;;6.55;4.22;;;;;;;21.46;40.13;100882.75;21083637;27;20074;-78
2022/10/21 10:20:45;;;;;;;7.53;2.50;;;;;;;21.41;40.98;100883.94;21072476;27;20048;-78
2022/10/21 10:30:49;;;;;;;8.52;3.00;;;;;;;21.57;45.55;100860.00;21063604;27;20044;-76
2022/10/21 10:40:50;;;;;;;5.75;2.85;;;;;;;21.65;46.79;100837.53;21073484;27;20040;-77
2022/10/21 10:50:51;;;;;;;4.68;3.30;;;;;;;21.74;47.65;100824.53;21077669;27;20092;-77
2022/10/21 11:00:55;;;;;;;4.60;3.10;;;;;;;21.79;47.71;100799.59;21079150;27;20044;-77
2022/10/21 11:11:00;;;;;;;6.20;3.10;;;;;;;21.86;48.22;100790.28;21074559;27;20048;-77
2022/10/21 11:21:22;;;;;;;4.10;2.85;;;;;;;21.87;48.39;100773.53;21069349;28;20044;-77
2022/10/21 11:31:36;;;;;;;3.97;3.27;;;;;;;21.87;48.60;100766.47;21073223;27;20032;-77
2022/10/21 11:42:18;;;;;;;3.67;2.90;;;;;;;21.85;49.08;100749.91;21076112;27;20052;-77
2022/10/21 11:52:25;;;;;;;6.30;3.77;;;;;;;21.83;49.06;100730.72;20957833;28;20051;-76
2022/10/21 12:03:14;;;;;;;4.45;3.80;;;;;;;21.85;49.32;100722.69;21079048;27;20054;-76
2022/10/21 12:13:17;;;;;;;7.05;4.80;;;;;;;21.83;49.11;100714.09;21062824;27;20048;-76
2022/10/21 12:23:23;;;;;;;9.85;4.63;;;;;;;21.82;49.13;100694.78;21083106;27;20566;-76
2022/10/21 12:33:43;;;;;;;12.57;4.82;;;;;;;21.83;49.55;100690.38;21093021;27;20032;-78
2022/10/21 12:43:52;;;;;;;11.27;4.60;;;;;;;21.83;49.43;100680.66;21081135;27;20051;-77
2022/10/21 12:54:03;;;;;;;9.27;3.92;;;;;;;21.82;49.62;100678.13;21085867;27;20035;-78
2022/10/21 13:04:04;;;;;;;8.20;3.92;;;;;;;21.81;49.42;100669.38;21075485;27;20048;-77
2022/10/21 13:14:17;;;;;;;8.95;4.15;;;;;;;21.84;50.15;100657.78;21080489;27;20043;-77
2022/10/21 13:24:22;;;;;;;13.55;4.60;;;;;;;21.88;50.68;100646.03;21069900;27;20126;-77
2022/10/21 13:34:28;;;;;;;10.02;5.43;;;;;;;21.89;50.90;100634.53;21068703;27;20044;-76
2022/10/21 13:44:40;;;;;;;12.98;6.60;;;;;;;21.93;51.67;100630.69;21065242;27;20042;-77
2022/10/21 13:54:40;;;;;;;12.77;6.40;;;;;;;21.88;50.08;100630.22;21063532;27;20453;-77
2022/10/21 14:04:41;;;;;;;12.65;6.53;;;;;;;21.83;50.62;100611.28;21061433;27;20070;-78
2022/10/21 14:14:42;;;;;;;11.50;5.95;;;;;;;21.82;50.78;100605.16;21071236;27;20557;-77
2022/10/21 14:24:45;;;;;;;9.52;5.95;;;;;;;21.80;50.65;100593.06;21063346;27;20101;-76
2022/10/21 14:35:09;;;;;;;7.50;5.55;;;;;;;21.74;50.72;100582.03;21071093;27;20040;-78
2022/10/21 14:45:18;;;;;;;9.93;5.82;;;;;;;21.72;50.52;100585.75;21033320;27;20084;-78
2022/10/21 14:55:29;;;;;;;10.27;6.53;;;;;;;21.70;50.56;100570.06;21052678;27;20046;-78
2022/10/21 15:05:42;;;;;;;8.80;6.10;;;;;;;21.68;50.40;100579.88;21047069;27;20225;-77
2022/10/21 15:15:46;;;;;;;9.55;6.47;;;;;;;21.65;50.59;100566.91;21061880;27;20052;-78
2022/10/21 15:25:51;;;;;;;9.45;6.47;;;;;;;21.62;50.88;100542.59;21052770;27;20040;-77
2022/10/21 15:36:13;;;;;;;9.25;5.82;;;;;;;21.58;50.59;100541.97;21041744;28;20036;-77
2022/10/21 15:46:13;;;;;;;12.85;5.40;;;;;;;21.41;47.31;100552.00;21062429;27;20047;-76
2022/10/21 15:56:16;;;;;;;8.80;4.88;;;;;;;21.47;47.62;100553.34;21057673;27;20523;-74
2022/10/21 16:06:19;;;;;;;14.88;6.10;;;;;;;21.50;48.65;100547.81;21076948;27;20039;-75
2022/10/21 16:16:21;;;;;;;;;;;;;;;21.49;47.82;100559.31;21055010;27;20051;-74
2022/10/21 16:26:24;;;;;;;15.80;6.43;;;;;;;21.52;50.25;100567.00;21078671;27;19934;-74
2022/10/21 16:36:29;;;;;;;15.20;6.88;;;;;;;21.59;50.66;100577.91;21066948;27;20050;-73
2022/10/21 16:46:34;;;;;;;13.00;5.90;;;;;;;21.60;51.15;100571.69;21046912;27;20044;-73
2022/10/21 16:56:35;;;;;;;12.50;6.35;;;;;;;21.65;51.94;100551.09;21048192;27;20047;-73
2022/10/21 17:06:35;;;;;;;12.60;5.60;;;;;;;21.62;52.07;100547.84;21029650;27;20044;-73
2022/10/21 17:16:35;;;;;;;13.05;5.82;;;;;;;21.64;52.20;100548.59;21049121;27;20085;-71
2022/10/21 17:26:36;;;;;;;13.30;5.80;;;;;;;21.68;52.30;100558.78;21053240;27;20120;-72
2022/10/21 17:36:37;;;;;;;27.23;15.43;;;;;;;21.78;53.11;100555.44;21052945;27;20027;-72
2022/10/21 17:46:37;;;;;;;33.13;23.13;;;;;;;21.85;53.60;100549.56;21061755;27;20039;-71
2022/10/21 17:56:37;;;;;;;38.15;27.67;;;;;;;21.93;54.15;100554.25;21051442;27;20067;-73
2022/10/21 18:06:38;;;;;;;39.90;27.80;;;;;;;21.98;53.64;100546.81;21043727;27;20382;-75
2022/10/21 18:16:40;;;;;;;39.80;25.33;;;;;;;21.99;53.04;100537.09;21038130;27;20032;-73
2022/10/21 18:26:40;;;;;;;39.67;24.63;;;;;;;22.00;54.79;100534.34;21058552;27;20169;-71
2022/10/21 18:36:42;;;;;;;32.88;22.77;;;;;;;22.03;54.86;100533.25;21033520;27;20287;-72
2022/10/21 18:46:42;;;;;;;35.08;21.35;;;;;;;22.04;54.64;100516.47;21050297;27;20047;-73
2022/10/21 18:56:43;;;;;;;32.67;20.15;;;;;;;22.04;54.49;100490.94;21050873;27;20564;-72
2022/10/21 19:06:45;;;;;;;26.23;17.85;;;;;;;22.06;53.89;100488.22;21046489;27;20131;-73
2022/10/21 19:16:47;;;;;;;26.17;17.27;;;;;;;22.04;54.05;100482.22;21051121;27;20032;-72
2022/10/21 19:26:55;;;;;;;28.30;15.73;;;;;;;22.08;53.43;100470.44;21042504;27;20051;-74
2022/10/21 19:36:55;;;;;;;25.35;15.23;;;;;;;22.11;53.78;100466.75;21039417;27;20043;-77
2022/10/21 19:46:56;;;;;;;24.23;13.65;;;;;;;22.06;52.41;100482.94;21054666;28;21010;-74
2022/10/21 19:56:56;;;;;;;19.45;13.30;;;;;;;22.01;52.65;100474.56;21058868;27;20089;-73
2022/10/21 20:06:57;;;;;;;21.60;12.75;;;;;;;21.98;52.78;100466.88;21056674;27;20193;-73
2022/10/21 20:16:57;;;;;;;18.77;12.38;;;;;;;21.94;53.26;100461.00;21040025;27;20846;-73
2022/10/21 20:26:57;;;;;;;18.58;12.20;;;;;;;21.88;53.08;100457.06;21061645;27;20032;-74
2022/10/21 20:36:58;;;;;;;14.15;10.70;;;;;;;21.84;52.93;100476.72;21075136;27;20122;-74
2022/10/21 20:46:58;;;;;;;13.95;10.10;;;;;;;21.82;53.09;100475.16;21047900;27;20463;-75
2022/10/21 20:56:58;;;;;;;13.93;9.98;;;;;;;21.81;52.95;100471.69;21056469;27;20032;-74
2022/10/21 21:06:59;;;;;;;15.02;10.38;;;;;;;21.77;53.17;100462.34;21049056;27;20466;-75
2022/10/21 21:16:59;;;;;;;14.43;9.60;;;;;;;21.74;53.34;100463.44;21055424;27;20036;-74
2022/10/21 21:27:00;;;;;;;12.40;8.90;;;;;;;21.74;53.38;100452.06;21056998;27;20127;-74
2022/10/21 21:37:00;;;;;;;13.88;9.20;;;;;;;21.69;53.22;100457.69;21048347;27;20067;-75
2022/10/21 21:47:00;;;;;;;13.93;9.85;;;;;;;21.68;53.32;100429.66;21041336;27;20044;-74
2022/10/21 21:57:01;;;;;;;12.95;8.95;;;;;;;21.68;53.22;100429.66;21063871;27;20032;-74
2022/10/21 22:07:02;;;;;;;12.77;9.13;;;;;;;21.66;53.23;100418.38;21055583;27;20092;-74
2022/10/21 22:17:02;;;;;;;12.15;8.60;;;;;;;21.65;53.17;100421.16;21050287;27;20417;-73
2022/10/21 22:27:03;;;;;;;12.35;9.35;;;;;;;21.65;53.40;100436.97;21049172;27;20046;-73
2022/10/21 22:37:03;;;;;;;12.00;8.82;;;;;;;21.63;53.35;100431.81;21045478;27;20704;-73
2022/10/21 22:47:04;;;;;;;12.98;8.77;;;;;;;21.62;53.27;100419.59;21058643;27;20693;-74
2022/10/21 22:57:04;;;;;;;12.23;8.35;;;;;;;21.61;53.36;100415.28;21045818;27;20612;-73
2022/10/21 23:07:05;;;;;;;10.52;8.30;;;;;;;21.61;53.29;100420.56;21059362;27;20060;-74
2022/10/21 23:17:05;;;;;;;10.88;8.73;;;;;;;21.59;53.47;100411.91;21047814;27;20984;-73
2022/10/21 23:27:05;;;;;;;13.77;9.15;;;;;;;21.58;53.23;100402.34;21041807;27;20036;-73
2022/10/21 23:37:06;;;;;;;10.45;8.60;;;;;;;21.56;53.21;100404.25;21046087;27;20039;-74
2022/10/21 23:47:06;;;;;;;10.80;8.23;;;;;;;21.55;53.54;100397.28;21047959;28;20047;-73
2022/10/21 23:57:06;;;;;;;11.05;8.35;;;;;;;21.53;53.14;100392.16;21034016;28;20127;-74
